createdAt,value
2022-12-23T08:10:15.642Z,8.86
2022-12-23T08:13:20.402Z,8.85
2022-12-23T08:16:25.204Z,8.95
2022-12-23T08:19:30.110Z,9.15
2022-12-23T08:22:35.073Z,9.08
2022-12-23T08:25:42.513Z,9.07
2022-12-23T08:28:48.802Z,9.00
2022-12-23T08:31:54.322Z,8.89
2022-12-23T08:34:59.875Z,8.83
2022-12-23T08:38:04.647Z,8.94
2022-12-23T08:41:15.826Z,8.91
2022-12-23T08:44:20.940Z,8.93
2022-12-23T08:47:25.722Z,8.88
2022-12-23T08:50:30.496Z,8.88
2022-12-23T08:53:35.855Z,8.78
2022-12-23T08:56:44.895Z,9.01
2022-12-23T08:59:49.880Z,9.24
2022-12-23T09:02:54.784Z,9.11
2022-12-23T09:05:59.756Z,9.28
2022-12-23T09:09:04.734Z,9.48
2022-12-23T09:12:12.540Z,9.46
2022-12-23T09:15:17.304Z,9.62
2022-12-23T09:18:22.457Z,9.59
2022-12-23T09:21:27.816Z,9.50
2022-12-23T09:24:32.752Z,9.53
2022-12-23T09:27:40.221Z,9.49
2022-12-23T09:30:45.078Z,9.34
2022-12-23T09:33:51.220Z,9.28
2022-12-23T09:36:56.068Z,9.53
2022-12-23T09:40:00.841Z,9.46
2022-12-23T09:43:23.541Z,9.47
2022-12-23T09:46:32.859Z,9.49
2022-12-23T09:49:43.249Z,9.31
2022-12-23T09:53:00.248Z,9.58
2022-12-23T09:56:11.237Z,9.52
2022-12-23T09:59:31.473Z,9.70
2022-12-23T10:02:50.242Z,9.65
2022-12-23T10:06:05.674Z,9.71
2022-12-23T10:09:13.920Z,9.77
2022-12-23T10:12:28.098Z,9.56
2022-12-23T10:15:40.717Z,9.85
2022-12-23T10:18:53.050Z,9.68
2022-12-23T10:22:05.162Z,9.76
2022-12-23T10:25:18.076Z,10.09
2022-12-23T10:28:23.054Z,10.02
2022-12-23T10:31:46.210Z,9.62
2022-12-23T10:34:59.375Z,9.97
2022-12-23T10:38:15.889Z,10.32
2022-12-23T10:41:31.269Z,10.26
2022-12-23T10:45:02.175Z,10.27
2022-12-23T10:48:24.768Z,10.49
2022-12-23T10:51:34.091Z,10.19
2022-12-23T10:54:40.558Z,9.91
2022-12-23T10:57:45.994Z,10.10
2022-12-23T11:00:56.263Z,10.24
2022-12-23T11:04:11.766Z,10.03
2022-12-23T11:07:43.630Z,10.12
2022-12-23T11:10:44.855Z,10.08
2022-12-23T11:13:51.205Z,10.08
2022-12-23T11:16:56.051Z,10.23
2022-12-23T11:20:17.360Z,10.50
2022-12-23T11:23:28.392Z,10.77
2022-12-23T11:26:33.648Z,10.38
2022-12-23T11:29:41.633Z,10.43
2022-12-23T11:32:46.522Z,10.78
2022-12-23T11:36:04.444Z,10.45
2022-12-23T11:39:19.855Z,10.56
2022-12-23T11:42:31.022Z,10.39
2022-12-23T11:45:39.849Z,10.47
2022-12-23T11:48:47.530Z,10.55
2022-12-23T11:52:15.106Z,10.58
2022-12-23T11:55:29.315Z,10.39
2022-12-23T11:58:39.955Z,10.22
2022-12-23T12:01:50.921Z,10.25
2022-12-23T12:05:00.535Z,10.30
2022-12-23T12:08:13.464Z,10.39
2022-12-23T12:11:22.234Z,10.29
2022-12-23T12:14:35.701Z,10.28
2022-12-23T12:17:47.535Z,10.29
2022-12-23T12:20:56.702Z,10.13
2022-12-23T12:24:19.689Z,10.14
2022-12-23T12:27:41.236Z,10.07
2022-12-23T12:30:53.690Z,10.04
2022-12-23T12:34:05.755Z,10.02
2022-12-23T12:37:28.018Z,10.04
2022-12-23T12:40:41.815Z,10.12
2022-12-23T12:43:51.716Z,10.16
2022-12-23T12:47:04.131Z,10.25
2022-12-23T12:50:28.012Z,10.25
2022-12-23T12:53:33.728Z,10.15
2022-12-23T12:56:46.817Z,10.15
2022-12-23T12:59:56.453Z,10.11
2022-12-23T13:03:23.735Z,10.28
2022-12-23T13:06:35.016Z,10.05
2022-12-23T13:09:52.469Z,10.14
2022-12-23T13:13:07.561Z,10.20
2022-12-23T13:16:23.569Z,10.20
2022-12-23T13:19:36.580Z,10.13
2022-12-23T13:22:42.881Z,10.06
2022-12-23T13:25:53.216Z,10.10
2022-12-23T13:29:23.083Z,9.94
2022-12-23T13:32:40.195Z,9.83
2022-12-23T13:36:04.940Z,9.92
2022-12-23T13:39:26.816Z,9.81
2022-12-23T13:42:36.395Z,9.89
2022-12-23T13:45:45.646Z,9.83
2022-12-23T13:48:59.773Z,9.91
2022-12-23T13:52:12.980Z,9.97
2022-12-23T13:55:31.234Z,9.88
2022-12-23T13:58:36.923Z,9.95
2022-12-23T14:01:50.185Z,10.00
2022-12-23T14:05:02.598Z,10.15
2022-12-23T14:08:10.490Z,10.04
2022-12-23T14:11:19.539Z,9.98
2022-12-23T14:14:28.453Z,10.01
2022-12-23T14:17:47.891Z,10.01
2022-12-23T14:20:59.978Z,10.07
2022-12-23T14:24:33.269Z,10.02
2022-12-23T14:27:47.153Z,10.01
2022-12-23T14:30:52.111Z,9.94
2022-12-23T14:34:06.313Z,9.95
2022-12-23T14:37:34.913Z,9.91
2022-12-23T14:41:20.910Z,9.91
2022-12-23T14:44:46.733Z,9.94
2022-12-23T14:47:51.600Z,9.90
2022-12-23T14:51:04.374Z,9.85
2022-12-23T14:54:18.214Z,9.80
2022-12-23T14:57:37.989Z,9.86
2022-12-23T15:00:50.909Z,9.82
2022-12-23T15:04:01.371Z,9.83
2022-12-23T15:07:16.467Z,9.89
2022-12-23T15:10:25.718Z,9.82
2022-12-23T15:13:32.247Z,9.88
2022-12-23T15:16:39.826Z,9.87
2022-12-23T15:19:49.874Z,9.94
2022-12-23T15:23:03.177Z,9.98
2022-12-23T15:26:08.795Z,10.02
2022-12-23T15:29:15.218Z,10.03
2022-12-23T15:32:23.072Z,10.16
2022-12-23T15:35:31.613Z,10.02
2022-12-23T15:38:42.413Z,9.93
2022-12-23T15:41:49.204Z,9.95
2022-12-23T15:44:54.445Z,10.06
2022-12-23T15:47:59.487Z,9.98
2022-12-23T15:51:08.630Z,9.93
2022-12-23T15:54:25.006Z,9.89
2022-12-23T15:57:38.010Z,9.93
2022-12-23T16:00:52.406Z,9.98
2022-12-23T16:04:00.999Z,9.98
2022-12-23T16:07:06.367Z,9.99
2022-12-23T16:10:22.807Z,9.91
2022-12-23T16:13:28.672Z,10.07
2022-12-23T16:16:41.639Z,10.10
2022-12-23T16:19:49.329Z,10.03
2022-12-23T16:22:59.612Z,10.19
2022-12-23T16:26:07.151Z,10.17
2022-12-23T16:29:13.653Z,10.17
2022-12-23T16:32:20.539Z,10.46
2022-12-23T16:35:39.080Z,10.56
2022-12-23T16:38:43.919Z,10.77
2022-12-23T16:41:51.979Z,11.01
2022-12-23T16:44:57.508Z,11.04
2022-12-23T16:48:03.765Z,11.07
2022-12-23T16:51:11.923Z,11.14
2022-12-23T16:54:19.077Z,11.21
2022-12-23T16:57:26.530Z,11.15
2022-12-23T17:00:31.329Z,11.21
2022-12-23T17:03:36.170Z,11.31
